sensor_id;sensor_type;location;lat;lon;timestamp;noise_LAeq;noise_LA_min;noise_LA_max;noise_LA01;noise_LA95
76338;Laerm;20358;50.272;19.026;2022-11-20T00:01:35;48.29;36.93;63.94;;
76338;Laerm;20358;50.272;19.026;2022-11-20T00:03:41;45.24;36.00;60.10;;
76338;Laerm;20358;50.272;19.026;2022-11-20T00:05:48;45.28;35.42;67.90;;
76338;Laerm;20358;50.272;19.026;2022-11-20T00:07:53;46.13;36.03;62.85;;
76338;Laerm;20358;50.272;19.026;2022-11-20T00:10:01;48.15;35.79;62.74;;
76338;Laerm;20358;50.272;19.026;2022-11-20T00:12:09;47.67;36.24;61.76;;
76338;Laerm;20358;50.272;19.026;2022-11-20T00:14:14;46.03;36.98;61.12;;
76338;Laerm;20358;50.272;19.026;2022-11-20T00:16:23;46.40;35.69;61.48;;
76338;Laerm;20358;50.272;19.026;2022-11-20T00:18:30;45.39;35.20;59.64;;
76338;Laerm;20358;50.272;19.026;2022-11-20T00:20:37;46.19;35.23;61.74;;
76338;Laerm;20358;50.272;19.026;2022-11-20T00:22:43;43.96;35.64;60.16;;
76338;Laerm;20358;50.272;19.026;2022-11-20T00:24:49;42.48;34.69;61.70;;
76338;Laerm;20358;50.272;19.026;2022-11-20T00:26:57;45.09;34.96;59.30;;
76338;Laerm;20358;50.272;19.026;2022-11-20T00:29:05;43.02;35.34;57.94;;
76338;Laerm;20358;50.272;19.026;2022-11-20T00:31:14;47.38;34.98;62.81;;
76338;Laerm;20358;50.272;19.026;2022-11-20T00:33:19;43.57;35.34;62.10;;
76338;Laerm;20358;50.272;19.026;2022-11-20T00:35:25;44.73;34.86;60.66;;
76338;Laerm;20358;50.272;19.026;2022-11-20T00:37:31;44.92;36.32;57.41;;
76338;Laerm;20358;50.272;19.026;2022-11-20T00:39:37;48.25;37.29;62.95;;
76338;Laerm;20358;50.272;19.026;2022-11-20T00:41:42;46.14;35.74;60.09;;
76338;Laerm;20358;50.272;19.026;2022-11-20T00:43:53;47.30;35.15;60.70;;
76338;Laerm;20358;50.272;19.026;2022-11-20T00:46:00;46.39;35.23;60.64;;
76338;Laerm;20358;50.272;19.026;2022-11-20T00:48:09;44.09;35.09;60.28;;
76338;Laerm;20358;50.272;19.026;2022-11-20T00:50:15;45.51;34.84;60.77;;
76338;Laerm;20358;50.272;19.026;2022-11-20T00:52:21;46.73;35.74;62.17;;
76338;Laerm;20358;50.272;19.026;2022-11-20T00:54:26;47.75;34.89;68.58;;
76338;Laerm;20358;50.272;19.026;2022-11-20T00:56:33;46.85;34.97;67.25;;
76338;Laerm;20358;50.272;19.026;2022-11-20T00:58:41;43.89;34.55;60.66;;
76338;Laerm;20358;50.272;19.026;2022-11-20T01:00:50;43.76;34.95;61.17;;
76338;Laerm;20358;50.272;19.026;2022-11-20T01:02:56;45.05;35.53;63.94;;
76338;Laerm;20358;50.272;19.026;2022-11-20T01:05:04;47.20;37.10;65.04;;
76338;Laerm;20358;50.272;19.026;2022-11-20T01:07:09;46.44;34.99;61.73;;
76338;Laerm;20358;50.272;19.026;2022-11-20T01:09:15;43.79;34.08;57.65;;
76338;Laerm;20358;50.272;19.026;2022-11-20T01:11:24;48.30;34.82;67.08;;
76338;Laerm;20358;50.272;19.026;2022-11-20T01:13:31;44.30;34.62;58.36;;
76338;Laerm;20358;50.272;19.026;2022-11-20T01:15:45;46.64;35.50;63.38;;
76338;Laerm;20358;50.272;19.026;2022-11-20T01:17:53;41.66;34.77;54.11;;
76338;Laerm;20358;50.272;19.026;2022-11-20T01:19:59;42.39;34.34;55.09;;
76338;Laerm;20358;50.272;19.026;2022-11-20T01:22:06;45.06;34.38;60.13;;
76338;Laerm;20358;50.272;19.026;2022-11-20T01:24:14;39.02;34.74;53.89;;
76338;Laerm;20358;50.272;19.026;2022-11-20T01:26:24;44.67;37.68;63.41;;
76338;Laerm;20358;50.272;19.026;2022-11-20T01:28:31;45.14;35.01;62.39;;
76338;Laerm;20358;50.272;19.026;2022-11-20T01:30:37;42.26;35.35;58.21;;
76338;Laerm;20358;50.272;19.026;2022-11-20T01:32:42;42.48;34.39;58.80;;
76338;Laerm;20358;50.272;19.026;2022-11-20T01:34:51;46.98;35.43;59.84;;
76338;Laerm;20358;50.272;19.026;2022-11-20T01:36:57;41.05;35.53;49.34;;
76338;Laerm;20358;50.272;19.026;2022-11-20T01:39:10;40.87;34.27;56.20;;
76338;Laerm;20358;50.272;19.026;2022-11-20T01:41:17;44.32;34.30;64.44;;
76338;Laerm;20358;50.272;19.026;2022-11-20T01:43:35;45.83;35.22;61.53;;
76338;Laerm;20358;50.272;19.026;2022-11-20T01:46:08;41.38;34.62;51.15;;
76338;Laerm;20358;50.272;19.026;2022-11-20T01:48:24;45.71;34.59;61.34;;
76338;Laerm;20358;50.272;19.026;2022-11-20T01:50:33;43.53;35.13;54.84;;
76338;Laerm;20358;50.272;19.026;2022-11-20T01:52:45;41.98;34.55;51.95;;
76338;Laerm;20358;50.272;19.026;2022-11-20T01:54:59;48.17;34.56;70.31;;
76338;Laerm;20358;50.272;19.026;2022-11-20T01:57:12;46.18;35.37;61.58;;
76338;Laerm;20358;50.272;19.026;2022-11-20T01:59:23;44.55;35.00;63.16;;
76338;Laerm;20358;50.272;19.026;2022-11-20T02:01:30;45.40;34.32;67.27;;
76338;Laerm;20358;50.272;19.026;2022-11-20T02:03:36;44.22;34.31;66.32;;
76338;Laerm;20358;50.272;19.026;2022-11-20T02:05:53;46.31;37.53;60.01;;
76338;Laerm;20358;50.272;19.026;2022-11-20T02:08:05;43.76;35.06;66.29;;
76338;Laerm;20358;50.272;19.026;2022-11-20T02:10:11;44.36;34.47;60.54;;
76338;Laerm;20358;50.272;19.026;2022-11-20T02:12:18;42.45;34.47;51.33;;
76338;Laerm;20358;50.272;19.026;2022-11-20T02:14:37;43.11;34.43;62.23;;
76338;Laerm;20358;50.272;19.026;2022-11-20T02:16:46;44.20;34.68;62.62;;
76338;Laerm;20358;50.272;19.026;2022-11-20T02:18:55;38.95;34.59;48.19;;
76338;Laerm;20358;50.272;19.026;2022-11-20T02:21:17;43.59;34.71;55.92;;
76338;Laerm;20358;50.272;19.026;2022-11-20T02:23:34;43.02;34.93;52.07;;
76338;Laerm;20358;50.272;19.026;2022-11-20T02:25:47;46.13;35.05;65.29;;
76338;Laerm;20358;50.272;19.026;2022-11-20T02:27:54;45.21;34.74;60.99;;
76338;Laerm;20358;50.272;19.026;2022-11-20T02:30:05;45.20;35.68;62.06;;
76338;Laerm;20358;50.272;19.026;2022-11-20T02:32:19;44.93;35.01;60.61;;
76338;Laerm;20358;50.272;19.026;2022-11-20T02:34:25;45.11;35.37;64.82;;
76338;Laerm;20358;50.272;19.026;2022-11-20T02:36:33;44.00;35.46;59.25;;
76338;Laerm;20358;50.272;19.026;2022-11-20T02:38:42;44.48;34.98;66.17;;
76338;Laerm;20358;50.272;19.026;2022-11-20T02:40:51;40.17;34.52;56.95;;
76338;Laerm;20358;50.272;19.026;2022-11-20T02:42:57;43.01;35.20;54.70;;
76338;Laerm;20358;50.272;19.026;2022-11-20T02:45:07;40.89;34.49;60.60;;
76338;Laerm;20358;50.272;19.026;2022-11-20T02:47:13;46.25;34.43;61.86;;
76338;Laerm;20358;50.272;19.026;2022-11-20T02:49:19;41.89;34.56;57.62;;
76338;Laerm;20358;50.272;19.026;2022-11-20T02:51:26;44.94;34.44;62.84;;
76338;Laerm;20358;50.272;19.026;2022-11-20T02:53:32;42.48;34.85;57.97;;
76338;Laerm;20358;50.272;19.026;2022-11-20T02:55:37;45.00;35.45;63.57;;
76338;Laerm;20358;50.272;19.026;2022-11-20T02:57:46;42.98;34.71;61.38;;
76338;Laerm;20358;50.272;19.026;2022-11-20T02:59:52;40.21;34.60;63.06;;
76338;Laerm;20358;50.272;19.026;2022-11-20T03:01:58;44.59;34.93;62.69;;
76338;Laerm;20358;50.272;19.026;2022-11-20T03:04:05;42.44;34.40;56.42;;
76338;Laerm;20358;50.272;19.026;2022-11-20T03:06:11;44.14;35.76;57.93;;
76338;Laerm;20358;50.272;19.026;2022-11-20T03:08:16;45.04;35.27;58.21;;
76338;Laerm;20358;50.272;19.026;2022-11-20T03:10:22;44.26;34.82;59.67;;
76338;Laerm;20358;50.272;19.026;2022-11-20T03:12:28;39.11;34.43;52.79;;
76338;Laerm;20358;50.272;19.026;2022-11-20T03:14:36;41.03;33.92;53.51;;
76338;Laerm;20358;50.272;19.026;2022-11-20T03:16:42;42.84;33.90;61.58;;
76338;Laerm;20358;50.272;19.026;2022-11-20T03:18:48;43.39;34.41;57.20;;
76338;Laerm;20358;50.272;19.026;2022-11-20T03:20:57;45.26;35.16;59.77;;
76338;Laerm;20358;50.272;19.026;2022-11-20T03:23:05;44.32;35.19;61.63;;
76338;Laerm;20358;50.272;19.026;2022-11-20T03:25:11;41.56;34.45;54.63;;
76338;Laerm;20358;50.272;19.026;2022-11-20T03:27:16;43.10;34.42;63.43;;
76338;Laerm;20358;50.272;19.026;2022-11-20T03:29:23;47.82;34.81;65.21;;
76338;Laerm;20358;50.272;19.026;2022-11-20T03:31:35;45.24;35.30;61.76;;
76338;Laerm;20358;50.272;19.026;2022-11-20T03:33:43;49.69;34.96;65.08;;
76338;Laerm;20358;50.272;19.026;2022-11-20T03:35:49;44.14;35.24;59.12;;
76338;Laerm;20358;50.272;19.026;2022-11-20T03:37:54;47.45;36.06;63.13;;
76338;Laerm;20358;50.272;19.026;2022-11-20T03:40:00;48.18;34.72;61.94;;
76338;Laerm;20358;50.272;19.026;2022-11-20T03:42:08;42.74;34.57;61.85;;
76338;Laerm;20358;50.272;19.026;2022-11-20T03:44:34;44.88;35.08;57.13;;
76338;Laerm;20358;50.272;19.026;2022-11-20T03:46:43;47.12;36.69;63.64;;
76338;Laerm;20358;50.272;19.026;2022-11-20T03:48:50;49.24;34.97;60.66;;
76338;Laerm;20358;50.272;19.026;2022-11-20T03:51:08;42.47;34.82;55.70;;
76338;Laerm;20358;50.272;19.026;2022-11-20T03:53:15;44.38;34.62;59.88;;
76338;Laerm;20358;50.272;19.026;2022-11-20T03:55:21;42.46;34.39;60.25;;
76338;Laerm;20358;50.272;19.026;2022-11-20T03:57:27;44.01;35.34;60.79;;
76338;Laerm;20358;50.272;19.026;2022-11-20T03:59:29;42.66;35.30;56.70;;
76338;Laerm;20358;50.272;19.026;2022-11-20T04:01:36;44.54;36.38;61.34;;
76338;Laerm;20358;50.272;19.026;2022-11-20T04:03:53;45.02;34.43;56.18;;
76338;Laerm;20358;50.272;19.026;2022-11-20T04:06:03;45.49;34.77;60.21;;
76338;Laerm;20358;50.272;19.026;2022-11-20T04:08:10;41.34;34.44;61.01;;
76338;Laerm;20358;50.272;19.026;2022-11-20T04:10:16;44.83;36.86;64.38;;
76338;Laerm;20358;50.272;19.026;2022-11-20T04:12:22;44.46;35.13;56.72;;
76338;Laerm;20358;50.272;19.026;2022-11-20T04:14:28;40.68;34.97;51.08;;
76338;Laerm;20358;50.272;19.026;2022-11-20T04:16:36;45.10;35.48;64.14;;
76338;Laerm;20358;50.272;19.026;2022-11-20T04:18:42;43.31;34.16;59.53;;
76338;Laerm;20358;50.272;19.026;2022-11-20T04:20:52;45.37;34.60;59.56;;
76338;Laerm;20358;50.272;19.026;2022-11-20T04:22:57;46.22;35.50;61.55;;
76338;Laerm;20358;50.272;19.026;2022-11-20T04:25:05;44.97;35.79;61.61;;
76338;Laerm;20358;50.272;19.026;2022-11-20T04:27:12;41.48;36.04;51.60;;
76338;Laerm;20358;50.272;19.026;2022-11-20T04:29:17;47.18;36.52;61.15;;
76338;Laerm;20358;50.272;19.026;2022-11-20T04:31:27;42.26;36.12;61.96;;
76338;Laerm;20358;50.272;19.026;2022-11-20T04:33:34;47.34;35.99;68.89;;
76338;Laerm;20358;50.272;19.026;2022-11-20T04:35:40;48.60;37.86;65.81;;
76338;Laerm;20358;50.272;19.026;2022-11-20T04:37:51;45.32;36.31;62.92;;
76338;Laerm;20358;50.272;19.026;2022-11-20T04:39:57;47.97;37.68;64.65;;
76338;Laerm;20358;50.272;19.026;2022-11-20T04:42:04;45.13;37.03;65.17;;
76338;Laerm;20358;50.272;19.026;2022-11-20T04:44:26;45.43;36.13;62.03;;
76338;Laerm;20358;50.272;19.026;2022-11-20T04:46:36;46.93;38.24;66.33;;
76338;Laerm;20358;50.272;19.026;2022-11-20T04:48:41;42.04;35.63;56.60;;
76338;Laerm;20358;50.272;19.026;2022-11-20T04:50:47;45.01;35.89;62.43;;
76338;Laerm;20358;50.272;19.026;2022-11-20T04:52:57;46.81;34.91;60.63;;
76338;Laerm;20358;50.272;19.026;2022-11-20T04:55:05;45.14;35.14;67.05;;
76338;Laerm;20358;50.272;19.026;2022-11-20T04:57:13;46.50;35.34;62.40;;
76338;Laerm;20358;50.272;19.026;2022-11-20T04:59:20;42.43;35.32;58.94;;
76338;Laerm;20358;50.272;19.026;2022-11-20T05:01:26;43.89;35.72;61.94;;
76338;Laerm;20358;50.272;19.026;2022-11-20T05:03:32;41.26;35.80;53.96;;
76338;Laerm;20358;50.272;19.026;2022-11-20T05:05:44;47.92;37.19;57.92;;
76338;Laerm;20358;50.272;19.026;2022-11-20T05:07:49;46.04;35.74;62.80;;
76338;Laerm;20358;50.272;19.026;2022-11-20T05:09:57;47.44;37.12;61.95;;
76338;Laerm;20358;50.272;19.026;2022-11-20T05:12:07;39.54;35.77;50.00;;
76338;Laerm;20358;50.272;19.026;2022-11-20T05:14:12;42.65;36.30;61.10;;
76338;Laerm;20358;50.272;19.026;2022-11-20T05:16:21;46.96;38.16;62.74;;
76338;Laerm;20358;50.272;19.026;2022-11-20T05:18:28;45.44;36.81;62.81;;
76338;Laerm;20358;50.272;19.026;2022-11-20T05:20:33;44.03;35.85;60.70;;
76338;Laerm;20358;50.272;19.026;2022-11-20T05:22:38;46.90;36.57;58.05;;
76338;Laerm;20358;50.272;19.026;2022-11-20T05:24:45;45.29;36.15;62.55;;
76338;Laerm;20358;50.272;19.026;2022-11-20T05:26:53;46.28;36.39;63.65;;
76338;Laerm;20358;50.272;19.026;2022-11-20T05:28:58;45.82;35.80;60.80;;
76338;Laerm;20358;50.272;19.026;2022-11-20T05:31:08;47.11;36.20;67.23;;
76338;Laerm;20358;50.272;19.026;2022-11-20T05:33:15;44.37;35.54;61.53;;
76338;Laerm;20358;50.272;19.026;2022-11-20T05:35:20;47.28;36.70;61.49;;
76338;Laerm;20358;50.272;19.026;2022-11-20T05:37:26;42.28;35.79;58.23;;
76338;Laerm;20358;50.272;19.026;2022-11-20T05:39:32;46.76;36.63;61.46;;
76338;Laerm;20358;50.272;19.026;2022-11-20T05:41:37;44.07;36.56;57.94;;
76338;Laerm;20358;50.272;19.026;2022-11-20T05:43:48;58.75;38.21;83.29;;
76338;Laerm;20358;50.272;19.026;2022-11-20T05:45:54;44.27;36.91;58.82;;
76338;Laerm;20358;50.272;19.026;2022-11-20T05:48:00;47.36;37.73;66.93;;
76338;Laerm;20358;50.272;19.026;2022-11-20T05:50:09;45.39;37.77;60.69;;
76338;Laerm;20358;50.272;19.026;2022-11-20T05:52:14;45.94;37.05;55.84;;
76338;Laerm;20358;50.272;19.026;2022-11-20T05:54:19;44.89;36.29;62.44;;
76338;Laerm;20358;50.272;19.026;2022-11-20T05:56:26;45.78;37.16;66.13;;
76338;Laerm;20358;50.272;19.026;2022-11-20T05:58:33;42.85;35.79;62.49;;
76338;Laerm;20358;50.272;19.026;2022-11-20T06:00:41;45.56;36.41;60.85;;
76338;Laerm;20358;50.272;19.026;2022-11-20T06:02:48;49.32;36.96;66.32;;
76338;Laerm;20358;50.272;19.026;2022-11-20T06:04:53;46.20;38.20;59.59;;
76338;Laerm;20358;50.272;19.026;2022-11-20T06:06:58;44.57;36.36;60.67;;
76338;Laerm;20358;50.272;19.026;2022-11-20T06:09:06;45.13;36.27;61.76;;
76338;Laerm;20358;50.272;19.026;2022-11-20T06:11:14;45.42;36.42;61.51;;
76338;Laerm;20358;50.272;19.026;2022-11-20T06:13:19;43.09;36.79;54.12;;
76338;Laerm;20358;50.272;19.026;2022-11-20T06:15:26;47.68;37.26;60.45;;
76338;Laerm;20358;50.272;19.026;2022-11-20T06:17:34;44.24;36.34;58.74;;
76338;Laerm;20358;50.272;19.026;2022-11-20T06:19:39;47.60;36.74;64.32;;
76338;Laerm;20358;50.272;19.026;2022-11-20T06:21:47;46.25;38.48;61.30;;
76338;Laerm;20358;50.272;19.026;2022-11-20T06:23:53;46.18;36.47;56.03;;
76338;Laerm;20358;50.272;19.026;2022-11-20T06:26:02;45.52;37.53;58.70;;
76338;Laerm;20358;50.272;19.026;2022-11-20T06:28:09;48.40;37.41;63.69;;
76338;Laerm;20358;50.272;19.026;2022-11-20T06:30:15;45.84;37.07;63.43;;
76338;Laerm;20358;50.272;19.026;2022-11-20T06:32:21;46.89;36.75;62.12;;
76338;Laerm;20358;50.272;19.026;2022-11-20T06:34:30;44.81;37.20;55.95;;
76338;Laerm;20358;50.272;19.026;2022-11-20T06:36:36;46.57;36.71;62.85;;
76338;Laerm;20358;50.272;19.026;2022-11-20T06:38:42;45.54;37.42;56.31;;
76338;Laerm;20358;50.272;19.026;2022-11-20T06:40:48;46.76;37.54;66.09;;
76338;Laerm;20358;50.272;19.026;2022-11-20T06:42:54;47.10;37.93;63.18;;
76338;Laerm;20358;50.272;19.026;2022-11-20T06:44:59;48.05;38.64;62.42;;
76338;Laerm;20358;50.272;19.026;2022-11-20T06:47:06;48.38;38.54;60.60;;
76338;Laerm;20358;50.272;19.026;2022-11-20T06:49:11;47.53;37.87;60.85;;
76338;Laerm;20358;50.272;19.026;2022-11-20T06:51:20;45.09;38.37;60.22;;
76338;Laerm;20358;50.272;19.026;2022-11-20T06:53:26;47.97;38.62;58.89;;
76338;Laerm;20358;50.272;19.026;2022-11-20T06:55:32;47.36;39.17;60.58;;
76338;Laerm;20358;50.272;19.026;2022-11-20T06:57:37;44.70;37.82;55.00;;
76338;Laerm;20358;50.272;19.026;2022-11-20T06:59:43;46.32;37.69;58.05;;
76338;Laerm;20358;50.272;19.026;2022-11-20T07:01:49;44.82;37.57;57.52;;
76338;Laerm;20358;50.272;19.026;2022-11-20T07:03:54;45.17;37.49;56.37;;
76338;Laerm;20358;50.272;19.026;2022-11-20T07:06:05;47.46;37.87;57.88;;
76338;Laerm;20358;50.272;19.026;2022-11-20T07:08:13;42.99;36.99;56.28;;
76338;Laerm;20358;50.272;19.026;2022-11-20T07:10:19;46.17;37.69;56.24;;
76338;Laerm;20358;50.272;19.026;2022-11-20T07:12:25;44.74;37.52;53.67;;
76338;Laerm;20358;50.272;19.026;2022-11-20T07:14:30;47.10;37.31;57.81;;
76338;Laerm;20358;50.272;19.026;2022-11-20T07:16:36;46.18;38.25;59.91;;
76338;Laerm;20358;50.272;19.026;2022-11-20T07:18:42;46.40;37.41;57.58;;
76338;Laerm;20358;50.272;19.026;2022-11-20T07:20:52;45.72;37.60;57.47;;
76338;Laerm;20358;50.272;19.026;2022-11-20T07:22:58;48.06;37.14;56.49;;
76338;Laerm;20358;50.272;19.026;2022-11-20T07:25:10;45.76;36.17;57.34;;
76338;Laerm;20358;50.272;19.026;2022-11-20T07:27:16;46.07;37.37;66.94;;
76338;Laerm;20358;50.272;19.026;2022-11-20T07:29:21;45.37;37.03;57.40;;
76338;Laerm;20358;50.272;19.026;2022-11-20T07:31:27;44.96;36.38;59.81;;
76338;Laerm;20358;50.272;19.026;2022-11-20T07:33:33;41.74;36.90;50.56;;
76338;Laerm;20358;50.272;19.026;2022-11-20T07:35:38;47.35;37.01;58.23;;
76338;Laerm;20358;50.272;19.026;2022-11-20T07:37:44;46.46;37.30;61.18;;
76338;Laerm;20358;50.272;19.026;2022-11-20T07:39:50;46.23;37.21;56.84;;
76338;Laerm;20358;50.272;19.026;2022-11-20T07:41:59;45.72;37.91;56.70;;
76338;Laerm;20358;50.272;19.026;2022-11-20T07:44:05;48.20;38.92;61.83;;
76338;Laerm;20358;50.272;19.026;2022-11-20T07:46:11;46.88;39.38;61.15;;
76338;Laerm;20358;50.272;19.026;2022-11-20T07:48:16;47.15;37.28;57.98;;
76338;Laerm;20358;50.272;19.026;2022-11-20T07:50:23;46.67;37.74;57.78;;
76338;Laerm;20358;50.272;19.026;2022-11-20T07:52:29;45.96;39.00;57.45;;
76338;Laerm;20358;50.272;19.026;2022-11-20T07:54:34;48.51;38.94;64.36;;
76338;Laerm;20358;50.272;19.026;2022-11-20T07:56:40;46.68;36.45;59.77;;
76338;Laerm;20358;50.272;19.026;2022-11-20T07:58:50;46.75;36.26;65.01;;
76338;Laerm;20358;50.272;19.026;2022-11-20T08:00:55;45.65;36.22;57.50;;
76338;Laerm;20358;50.272;19.026;2022-11-20T08:03:04;45.58;36.39;56.76;;
76338;Laerm;20358;50.272;19.026;2022-11-20T08:05:10;46.17;36.10;57.48;;
76338;Laerm;20358;50.272;19.026;2022-11-20T08:07:16;44.49;37.08;56.42;;
76338;Laerm;20358;50.272;19.026;2022-11-20T08:09:22;47.45;36.74;57.72;;
76338;Laerm;20358;50.272;19.026;2022-11-20T08:11:28;46.35;36.42;62.30;;
76338;Laerm;20358;50.272;19.026;2022-11-20T08:13:51;47.23;36.83;60.26;;
76338;Laerm;20358;50.272;19.026;2022-11-20T08:16:14;46.33;36.61;61.19;;
76338;Laerm;20358;50.272;19.026;2022-11-20T08:18:19;48.06;37.26;62.15;;
76338;Laerm;20358;50.272;19.026;2022-11-20T08:20:34;46.59;37.72;57.44;;
76338;Laerm;20358;50.272;19.026;2022-11-20T08:22:41;46.41;38.08;55.72;;
76338;Laerm;20358;50.272;19.026;2022-11-20T08:24:46;46.00;36.71;58.12;;
76338;Laerm;20358;50.272;19.026;2022-11-20T08:26:52;48.28;36.28;62.77;;
76338;Laerm;20358;50.272;19.026;2022-11-20T08:29:01;47.59;36.59;58.79;;
76338;Laerm;20358;50.272;19.026;2022-11-20T08:31:07;47.21;37.04;58.09;;
76338;Laerm;20358;50.272;19.026;2022-11-20T08:33:13;45.17;36.62;57.06;;
76338;Laerm;20358;50.272;19.026;2022-11-20T08:35:20;48.82;38.13;61.28;;
76338;Laerm;20358;50.272;19.026;2022-11-20T08:37:26;54.37;36.24;78.28;;
76338;Laerm;20358;50.272;19.026;2022-11-20T08:39:31;53.82;37.14;74.94;;
76338;Laerm;20358;50.272;19.026;2022-11-20T08:41:37;47.43;36.53;58.59;;
76338;Laerm;20358;50.272;19.026;2022-11-20T08:43:43;47.71;38.71;58.07;;
76338;Laerm;20358;50.272;19.026;2022-11-20T08:45:52;48.15;36.97;58.15;;
76338;Laerm;20358;50.272;19.026;2022-11-20T08:48:01;52.03;37.76;66.47;;
76338;Laerm;20358;50.272;19.026;2022-11-20T08:50:09;46.78;35.86;59.53;;
76338;Laerm;20358;50.272;19.026;2022-11-20T08:52:15;48.87;38.91;63.26;;
76338;Laerm;20358;50.272;19.026;2022-11-20T08:54:21;47.56;37.67;61.36;;
76338;Laerm;20358;50.272;19.026;2022-11-20T08:56:27;48.01;39.27;58.75;;
76338;Laerm;20358;50.272;19.026;2022-11-20T08:58:32;47.34;37.90;58.75;;
76338;Laerm;20358;50.272;19.026;2022-11-20T09:01:02;48.41;37.85;59.35;;
76338;Laerm;20358;50.272;19.026;2022-11-20T09:03:10;47.10;36.20;59.50;;
76338;Laerm;20358;50.272;19.026;2022-11-20T09:05:15;48.81;36.90;59.76;;
76338;Laerm;20358;50.272;19.026;2022-11-20T09:07:22;45.59;36.69;57.70;;
76338;Laerm;20358;50.272;19.026;2022-11-20T09:09:27;46.81;35.99;58.68;;
76338;Laerm;20358;50.272;19.026;2022-11-20T09:11:36;47.87;36.96;57.60;;
76338;Laerm;20358;50.272;19.026;2022-11-20T09:13:42;46.78;35.51;58.44;;
76338;Laerm;20358;50.272;19.026;2022-11-20T09:15:53;49.12;36.95;61.68;;
76338;Laerm;20358;50.272;19.026;2022-11-20T09:18:03;47.52;37.70;61.18;;
76338;Laerm;20358;50.272;19.026;2022-11-20T09:20:10;48.47;36.96;61.20;;
76338;Laerm;20358;50.272;19.026;2022-11-20T09:22:16;48.25;38.04;60.58;;
76338;Laerm;20358;50.272;19.026;2022-11-20T09:24:21;46.54;35.90;57.71;;
76338;Laerm;20358;50.272;19.026;2022-11-20T09:26:27;49.32;39.26;59.96;;
76338;Laerm;20358;50.272;19.026;2022-11-20T09:28:33;48.60;39.85;62.03;;
76338;Laerm;20358;50.272;19.026;2022-11-20T09:30:38;47.65;37.04;57.07;;
76338;Laerm;20358;50.272;19.026;2022-11-20T09:32:45;47.72;36.66;61.11;;
76338;Laerm;20358;50.272;19.026;2022-11-20T09:34:53;47.12;35.78;58.17;;
76338;Laerm;20358;50.272;19.026;2022-11-20T09:36:58;46.91;36.70;62.45;;
76338;Laerm;20358;50.272;19.026;2022-11-20T09:39:09;49.27;36.35;66.77;;
76338;Laerm;20358;50.272;19.026;2022-11-20T09:41:47;46.87;37.33;58.95;;
76338;Laerm;20358;50.272;19.026;2022-11-20T09:44:10;47.52;35.55;58.54;;
76338;Laerm;20358;50.272;19.026;2022-11-20T09:46:35;49.71;36.35;61.51;;
76338;Laerm;20358;50.272;19.026;2022-11-20T09:49:12;46.41;35.93;54.50;;
76338;Laerm;20358;50.272;19.026;2022-11-20T09:51:41;49.72;38.80;59.75;;
76338;Laerm;20358;50.272;19.026;2022-11-20T09:54:09;48.95;41.87;60.64;;
76338;Laerm;20358;50.272;19.026;2022-11-20T09:56:20;48.47;39.35;59.19;;
76338;Laerm;20358;50.272;19.026;2022-11-20T09:58:34;49.30;38.01;58.78;;
76338;Laerm;20358;50.272;19.026;2022-11-20T10:00:42;49.12;38.46;64.14;;
76338;Laerm;20358;50.272;19.026;2022-11-20T10:02:55;48.60;36.55;60.53;;
76338;Laerm;20358;50.272;19.026;2022-11-20T10:05:18;48.61;36.74;59.55;;
76338;Laerm;20358;50.272;19.026;2022-11-20T10:07:38;50.34;37.59;59.95;;
76338;Laerm;20358;50.272;19.026;2022-11-20T10:09:53;46.95;36.92;57.77;;
76338;Laerm;20358;50.272;19.026;2022-11-20T10:12:17;46.56;35.71;58.65;;
76338;Laerm;20358;50.272;19.026;2022-11-20T10:14:40;46.40;37.74;58.76;;
76338;Laerm;20358;50.272;19.026;2022-11-20T10:17:08;48.03;38.20;60.70;;
76338;Laerm;20358;50.272;19.026;2022-11-20T10:19:47;48.97;38.06;66.18;;
76338;Laerm;20358;50.272;19.026;2022-11-20T10:22:14;47.64;37.33;57.45;;
76338;Laerm;20358;50.272;19.026;2022-11-20T10:24:44;49.33;35.96;64.59;;
76338;Laerm;20358;50.272;19.026;2022-11-20T10:27:09;48.53;35.93;65.36;;
76338;Laerm;20358;50.272;19.026;2022-11-20T10:29:29;49.35;37.31;64.31;;
76338;Laerm;20358;50.272;19.026;2022-11-20T10:31:42;45.92;34.71;57.05;;
76338;Laerm;20358;50.272;19.026;2022-11-20T10:33:49;48.45;35.84;59.18;;
76338;Laerm;20358;50.272;19.026;2022-11-20T10:36:22;47.33;35.54;59.91;;
76338;Laerm;20358;50.272;19.026;2022-11-20T10:38:38;48.89;37.71;59.35;;
76338;Laerm;20358;50.272;19.026;2022-11-20T10:40:54;49.70;38.19;59.96;;
76338;Laerm;20358;50.272;19.026;2022-11-20T10:43:32;47.44;35.81;60.32;;
76338;Laerm;20358;50.272;19.026;2022-11-20T10:45:56;49.80;38.20;61.27;;
76338;Laerm;20358;50.272;19.026;2022-11-20T10:48:18;48.58;36.33;62.65;;
76338;Laerm;20358;50.272;19.026;2022-11-20T10:50:28;48.26;36.60;60.20;;
76338;Laerm;20358;50.272;19.026;2022-11-20T10:52:51;49.70;36.44;61.09;;
76338;Laerm;20358;50.272;19.026;2022-11-20T10:55:24;47.17;35.99;62.65;;
76338;Laerm;20358;50.272;19.026;2022-11-20T10:57:52;48.91;37.25;60.65;;
76338;Laerm;20358;50.272;19.026;2022-11-20T11:00:05;48.91;37.99;64.40;;
76338;Laerm;20358;50.272;19.026;2022-11-20T11:02:18;48.12;37.23;58.63;;
76338;Laerm;20358;50.272;19.026;2022-11-20T11:04:37;48.72;35.22;59.47;;
76338;Laerm;20358;50.272;19.026;2022-11-20T11:06:49;46.47;35.82;56.60;;
76338;Laerm;20358;50.272;19.026;2022-11-20T11:09:01;48.00;37.88;61.83;;
76338;Laerm;20358;50.272;19.026;2022-11-20T11:11:21;49.60;36.25;61.83;;
76338;Laerm;20358;50.272;19.026;2022-11-20T11:13:31;48.54;37.73;58.65;;
76338;Laerm;20358;50.272;19.026;2022-11-20T11:15:40;48.82;37.30;60.96;;
76338;Laerm;20358;50.272;19.026;2022-11-20T11:17:47;48.73;36.91;59.81;;
76338;Laerm;20358;50.272;19.026;2022-11-20T11:20:06;49.09;37.78;60.13;;
76338;Laerm;20358;50.272;19.026;2022-11-20T11:22:19;49.06;38.64;60.61;;
76338;Laerm;20358;50.272;19.026;2022-11-20T11:24:27;49.32;36.68;61.04;;
76338;Laerm;20358;50.272;19.026;2022-11-20T11:26:53;49.02;37.30;63.00;;
76338;Laerm;20358;50.272;19.026;2022-11-20T11:29:17;49.07;36.16;59.44;;
76338;Laerm;20358;50.272;19.026;2022-11-20T11:31:25;48.66;36.33;59.45;;
76338;Laerm;20358;50.272;19.026;2022-11-20T11:33:32;47.89;37.96;62.79;;
76338;Laerm;20358;50.272;19.026;2022-11-20T11:35:46;48.88;37.56;59.03;;
76338;Laerm;20358;50.272;19.026;2022-11-20T11:38:04;49.16;37.50;59.72;;
76338;Laerm;20358;50.272;19.026;2022-11-20T11:40:12;49.90;38.44;61.60;;
76338;Laerm;20358;50.272;19.026;2022-11-20T11:42:25;47.86;37.08;59.04;;
76338;Laerm;20358;50.272;19.026;2022-11-20T11:44:36;48.82;38.61;56.47;;
76338;Laerm;20358;50.272;19.026;2022-11-20T11:46:58;49.47;37.19;63.79;;
76338;Laerm;20358;50.272;19.026;2022-11-20T11:49:17;49.09;36.49;58.38;;
76338;Laerm;20358;50.272;19.026;2022-11-20T11:51:29;48.08;35.07;58.51;;
76338;Laerm;20358;50.272;19.026;2022-11-20T11:53:42;52.00;39.69;63.07;;
76338;Laerm;20358;50.272;19.026;2022-11-20T11:55:57;47.28;37.35;58.47;;